sensor_id;sensor_type;location;lat;lon;timestamp;temperature;humidity
69938;DHT22;57248;47.320;15.998;2023-12-29T00:01:50;-0.83;97.06
69938;DHT22;57248;47.320;15.998;2023-12-29T00:04:22;-0.81;97.01
69938;DHT22;57248;47.320;15.998;2023-12-29T00:06:54;-0.78;97.92
69938;DHT22;57248;47.320;15.998;2023-12-29T00:09:27;-0.80;98.21
69938;DHT22;57248;47.320;15.998;2023-12-29T00:12:00;-0.73;97.89
69938;DHT22;57248;47.320;15.998;2023-12-29T00:14:33;-0.74;98.24
69938;DHT22;57248;47.320;15.998;2023-12-29T00:17:09;-0.74;97.42
69938;DHT22;57248;47.320;15.998;2023-12-29T00:19:41;-0.73;97.82
69938;DHT22;57248;47.320;15.998;2023-12-29T00:22:14;-0.83;97.27
69938;DHT22;57248;47.320;15.998;2023-12-29T00:24:46;-0.88;96.99
69938;DHT22;57248;47.320;15.998;2023-12-29T00:27:19;-0.85;97.05
69938;DHT22;57248;47.320;15.998;2023-12-29T00:29:51;-0.88;97.20
69938;DHT22;57248;47.320;15.998;2023-12-29T00:32:24;-0.92;96.67
69938;DHT22;57248;47.320;15.998;2023-12-29T00:34:50;-0.97;96.57
69938;DHT22;57248;47.320;15.998;2023-12-29T00:37:22;-0.95;98.12
69938;DHT22;57248;47.320;15.998;2023-12-29T00:39:54;-0.98;97.30
69938;DHT22;57248;47.320;15.998;2023-12-29T00:42:26;-0.98;97.73
69938;DHT22;57248;47.320;15.998;2023-12-29T00:44:59;-0.95;97.51
69938;DHT22;57248;47.320;15.998;2023-12-29T00:47:32;-0.99;97.16
69938;DHT22;57248;47.320;15.998;2023-12-29T00:50:04;-0.97;97.03
69938;DHT22;57248;47.320;15.998;2023-12-29T00:52:43;-1.01;96.78
69938;DHT22;57248;47.320;15.998;2023-12-29T00:55:16;-0.99;97.92
69938;DHT22;57248;47.320;15.998;2023-12-29T00:57:49;-0.99;98.18
69938;DHT22;57248;47.320;15.998;2023-12-29T01:00:21;-1.04;98.37
69938;DHT22;57248;47.320;15.998;2023-12-29T01:02:53;-1.04;98.13
69938;DHT22;57248;47.320;15.998;2023-12-29T01:05:26;-1.06;97.64
69938;DHT22;57248;47.320;15.998;2023-12-29T01:07:59;-1.08;97.49
69938;DHT22;57248;47.320;15.998;2023-12-29T01:10:31;-1.11;97.12
69938;DHT22;57248;47.320;15.998;2023-12-29T01:13:03;-1.08;96.99
69938;DHT22;57248;47.320;15.998;2023-12-29T01:15:35;-1.09;97.35
69938;DHT22;57248;47.320;15.998;2023-12-29T01:18:07;-1.08;97.28
69938;DHT22;57248;47.320;15.998;2023-12-29T01:20:39;-1.12;97.47
69938;DHT22;57248;47.320;15.998;2023-12-29T01:23:06;-1.13;97.01
69938;DHT22;57248;47.320;15.998;2023-12-29T01:25:38;-1.16;97.01
69938;DHT22;57248;47.320;15.998;2023-12-29T01:28:10;-1.15;97.50
69938;DHT22;57248;47.320;15.998;2023-12-29T01:30:42;-1.19;97.20
69938;DHT22;57248;47.320;15.998;2023-12-29T01:33:14;-1.18;97.59
69938;DHT22;57248;47.320;15.998;2023-12-29T01:35:46;-1.20;97.31
69938;DHT22;57248;47.320;15.998;2023-12-29T01:38:18;-1.16;97.80
69938;DHT22;57248;47.320;15.998;2023-12-29T01:40:50;-1.26;97.56
69938;DHT22;57248;47.320;15.998;2023-12-29T01:43:22;-1.24;97.61
69938;DHT22;57248;47.320;15.998;2023-12-29T01:45:54;-1.26;97.51
69938;DHT22;57248;47.320;15.998;2023-12-29T01:48:33;-1.20;98.43
69938;DHT22;57248;47.320;15.998;2023-12-29T01:51:12;-1.29;98.14
69938;DHT22;57248;47.320;15.998;2023-12-29T01:53:44;-1.32;97.67
69938;DHT22;57248;47.320;15.998;2023-12-29T01:56:10;-1.36;97.49
69938;DHT22;57248;47.320;15.998;2023-12-29T01:58:43;-1.38;97.60
69938;DHT22;57248;47.320;15.998;2023-12-29T02:01:18;-1.45;97.72
69938;DHT22;57248;47.320;15.998;2023-12-29T02:03:50;-1.39;98.28
69938;DHT22;57248;47.320;15.998;2023-12-29T02:06:22;-1.45;97.60
69938;DHT22;57248;47.320;15.998;2023-12-29T02:08:57;-1.46;97.68
69938;DHT22;57248;47.320;15.998;2023-12-29T02:11:31;-1.50;98.68
69938;DHT22;57248;47.320;15.998;2023-12-29T02:14:04;-1.43;99.25
69938;DHT22;57248;47.320;15.998;2023-12-29T02:16:38;-1.38;99.61
69938;DHT22;57248;47.320;15.998;2023-12-29T02:19:37;-1.36;99.85
69938;DHT22;57248;47.320;15.998;2023-12-29T02:22:10;-1.36;99.39
69938;DHT22;57248;47.320;15.998;2023-12-29T02:24:47;-1.35;99.20
69938;DHT22;57248;47.320;15.998;2023-12-29T02:32:47;-1.47;98.45
69938;DHT22;57248;47.320;15.998;2023-12-29T02:35:27;-1.45;98.54
69938;DHT22;57248;47.320;15.998;2023-12-29T02:38:00;-1.50;98.42
69938;DHT22;57248;47.320;15.998;2023-12-29T02:40:33;-1.59;97.75
69938;DHT22;57248;47.320;15.998;2023-12-29T02:43:05;-1.57;97.62
69938;DHT22;57248;47.320;15.998;2023-12-29T02:45:37;-1.59;97.72
69938;DHT22;57248;47.320;15.998;2023-12-29T02:48:09;-1.59;98.63
69938;DHT22;57248;47.320;15.998;2023-12-29T02:50:42;-1.64;98.22
69938;DHT22;57248;47.320;15.998;2023-12-29T02:53:21;-1.64;98.24
69938;DHT22;57248;47.320;15.998;2023-12-29T02:55:53;-1.66;98.58
69938;DHT22;57248;47.320;15.998;2023-12-29T02:58:18;-1.60;99.33
69938;DHT22;57248;47.320;15.998;2023-12-29T03:00:57;-1.46;99.69
69938;DHT22;57248;47.320;15.998;2023-12-29T03:03:29;-1.42;99.74
69938;DHT22;57248;47.320;15.998;2023-12-29T03:06:01;-1.50;99.45
69938;DHT22;57248;47.320;15.998;2023-12-29T03:08:26;-1.52;98.92
69938;DHT22;57248;47.320;15.998;2023-12-29T03:10:59;-1.62;98.94
69938;DHT22;57248;47.320;15.998;2023-12-29T03:13:31;-1.59;98.90
69938;DHT22;57248;47.320;15.998;2023-12-29T03:16:03;-1.59;99.12
69938;DHT22;57248;47.320;15.998;2023-12-29T03:18:35;-1.66;98.96
69938;DHT22;57248;47.320;15.998;2023-12-29T03:21:10;-1.68;98.57
69938;DHT22;57248;47.320;15.998;2023-12-29T03:23:35;-1.77;98.73
69938;DHT22;57248;47.320;15.998;2023-12-29T03:26:08;-1.70;99.57
69938;DHT22;57248;47.320;15.998;2023-12-29T03:28:40;-1.83;98.92
69938;DHT22;57248;47.320;15.998;2023-12-29T03:31:12;-1.86;99.15
69938;DHT22;57248;47.320;15.998;2023-12-29T03:33:44;-1.81;98.55
69938;DHT22;57248;47.320;15.998;2023-12-29T03:36:16;-1.83;98.61
69938;DHT22;57248;47.320;15.998;2023-12-29T03:38:48;-1.83;98.59
69938;DHT22;57248;47.320;15.998;2023-12-29T03:41:20;-1.86;98.84
69938;DHT22;57248;47.320;15.998;2023-12-29T03:43:52;-1.77;99.37
69938;DHT22;57248;47.320;15.998;2023-12-29T03:46:24;-1.66;99.62
69938;DHT22;57248;47.320;15.998;2023-12-29T03:48:56;-1.77;99.20
69938;DHT22;57248;47.320;15.998;2023-12-29T03:51:29;-1.87;98.78
69938;DHT22;57248;47.320;15.998;2023-12-29T03:54:02;-1.90;99.16
69938;DHT22;57248;47.320;15.998;2023-12-29T03:56:35;-1.99;98.84
69938;DHT22;57248;47.320;15.998;2023-12-29T03:59:07;-1.94;98.96
69938;DHT22;57248;47.320;15.998;2023-12-29T04:01:39;-2.05;98.44
69938;DHT22;57248;47.320;15.998;2023-12-29T04:04:11;-2.02;98.85
69938;DHT22;57248;47.320;15.998;2023-12-29T04:06:43;-2.17;98.13
69938;DHT22;57248;47.320;15.998;2023-12-29T04:09:15;-2.12;98.25
69938;DHT22;57248;47.320;15.998;2023-12-29T04:11:48;-2.11;98.24
69938;DHT22;57248;47.320;15.998;2023-12-29T04:14:20;-1.99;99.26
69938;DHT22;57248;47.320;15.998;2023-12-29T04:16:53;-2.01;99.64
69938;DHT22;57248;47.320;15.998;2023-12-29T04:19:25;-2.01;99.32
69938;DHT22;57248;47.320;15.998;2023-12-29T04:21:57;-2.12;98.71
69938;DHT22;57248;47.320;15.998;2023-12-29T04:24:30;-2.19;98.88
69938;DHT22;57248;47.320;15.998;2023-12-29T04:26:56;-2.18;98.74
69938;DHT22;57248;47.320;15.998;2023-12-29T04:29:28;-2.22;98.79
69938;DHT22;57248;47.320;15.998;2023-12-29T04:31:54;-2.22;98.73
69938;DHT22;57248;47.320;15.998;2023-12-29T04:34:27;-2.25;99.08
69938;DHT22;57248;47.320;15.998;2023-12-29T04:36:59;-2.34;98.76
69938;DHT22;57248;47.320;15.998;2023-12-29T04:39:31;-2.26;99.48
69938;DHT22;57248;47.320;15.998;2023-12-29T04:42:03;-2.24;99.73
69938;DHT22;57248;47.320;15.998;2023-12-29T04:44:35;-2.29;99.32
69938;DHT22;57248;47.320;15.998;2023-12-29T04:47:07;-2.35;98.85
69938;DHT22;57248;47.320;15.998;2023-12-29T04:49:47;-2.31;98.87
69938;DHT22;57248;47.320;15.998;2023-12-29T04:52:19;-2.32;98.73
69938;DHT22;57248;47.320;15.998;2023-12-29T04:54:58;-2.41;98.62
69938;DHT22;57248;47.320;15.998;2023-12-29T04:57:37;-2.41;98.62
69938;DHT22;57248;47.320;15.998;2023-12-29T05:00:09;-2.44;98.80
69938;DHT22;57248;47.320;15.998;2023-12-29T05:02:42;-2.53;98.41
69938;DHT22;57248;47.320;15.998;2023-12-29T05:05:14;-2.49;98.48
69938;DHT22;57248;47.320;15.998;2023-12-29T05:07:40;-2.49;99.19
69938;DHT22;57248;47.320;15.998;2023-12-29T05:10:12;-2.52;98.72
69938;DHT22;57248;47.320;15.998;2023-12-29T05:12:44;-2.41;99.10
69938;DHT22;57248;47.320;15.998;2023-12-29T05:15:09;-2.38;99.59
69938;DHT22;57248;47.320;15.998;2023-12-29T05:17:42;-2.42;99.69
69938;DHT22;57248;47.320;15.998;2023-12-29T05:20:14;-2.52;99.41
69938;DHT22;57248;47.320;15.998;2023-12-29T05:22:47;-2.53;98.92
69938;DHT22;57248;47.320;15.998;2023-12-29T05:25:19;-2.48;99.18
69938;DHT22;57248;47.320;15.998;2023-12-29T05:27:54;-2.49;99.27
69938;DHT22;57248;47.320;15.998;2023-12-29T05:30:27;-2.49;98.89
69938;DHT22;57248;47.320;15.998;2023-12-29T05:33:03;-2.39;99.85
69938;DHT22;57248;47.320;15.998;2023-12-29T05:35:35;-2.52;99.41
69938;DHT22;57248;47.320;15.998;2023-12-29T05:38:07;-2.48;99.16
69938;DHT22;57248;47.320;15.998;2023-12-29T05:40:39;-2.56;98.93
69938;DHT22;57248;47.320;15.998;2023-12-29T05:43:11;-2.60;98.87
69938;DHT22;57248;47.320;15.998;2023-12-29T05:45:44;-2.59;98.83
69938;DHT22;57248;47.320;15.998;2023-12-29T05:48:10;-2.62;98.72
69938;DHT22;57248;47.320;15.998;2023-12-29T05:50:49;-2.59;98.91
69938;DHT22;57248;47.320;15.998;2023-12-29T05:53:21;-2.63;98.55
69938;DHT22;57248;47.320;15.998;2023-12-29T05:55:53;-2.67;98.69
69938;DHT22;57248;47.320;15.998;2023-12-29T05:58:25;-2.70;98.39
69938;DHT22;57248;47.320;15.998;2023-12-29T06:00:58;-2.59;99.11
69938;DHT22;57248;47.320;15.998;2023-12-29T06:03:27;-2.56;99.71
69938;DHT22;57248;47.320;15.998;2023-12-29T06:05:59;-2.69;99.23
69938;DHT22;57248;47.320;15.998;2023-12-29T06:08:24;-2.73;99.22
69938;DHT22;57248;47.320;15.998;2023-12-29T06:10:57;-2.77;98.54
69938;DHT22;57248;47.320;15.998;2023-12-29T06:13:29;-2.83;98.71
69938;DHT22;57248;47.320;15.998;2023-12-29T06:16:01;-2.79;98.94
69938;DHT22;57248;47.320;15.998;2023-12-29T06:18:34;-2.83;98.82
69938;DHT22;57248;47.320;15.998;2023-12-29T06:21:06;-2.83;98.89
69938;DHT22;57248;47.320;15.998;2023-12-29T06:23:38;-2.76;99.19
69938;DHT22;57248;47.320;15.998;2023-12-29T06:26:14;-2.69;99.72
69938;DHT22;57248;47.320;15.998;2023-12-29T06:28:47;-2.69;99.71
69938;DHT22;57248;47.320;15.998;2023-12-29T06:31:13;-2.77;99.23
69938;DHT22;57248;47.320;15.998;2023-12-29T06:33:45;-2.76;99.18
69938;DHT22;57248;47.320;15.998;2023-12-29T06:36:17;-2.69;99.79
69938;DHT22;57248;47.320;15.998;2023-12-29T06:38:49;-2.66;99.47
69938;DHT22;57248;47.320;15.998;2023-12-29T06:41:15;-2.72;99.17
69938;DHT22;57248;47.320;15.998;2023-12-29T06:43:49;-2.79;98.85
69938;DHT22;57248;47.320;15.998;2023-12-29T06:46:21;-2.80;98.65
69938;DHT22;57248;47.320;15.998;2023-12-29T06:48:53;-2.81;98.71
69938;DHT22;57248;47.320;15.998;2023-12-29T06:51:39;-2.81;98.82
69938;DHT22;57248;47.320;15.998;2023-12-29T06:54:13;-2.75;98.79
69938;DHT22;57248;47.320;15.998;2023-12-29T06:56:45;-2.67;99.27
69938;DHT22;57248;47.320;15.998;2023-12-29T06:59:18;-2.56;99.65
69938;DHT22;57248;47.320;15.998;2023-12-29T07:01:51;-2.52;99.55
69938;DHT22;57248;47.320;15.998;2023-12-29T07:04:16;-2.48;99.09
69938;DHT22;57248;47.320;15.998;2023-12-29T07:06:49;-2.42;98.50
69938;DHT22;57248;47.320;15.998;2023-12-29T07:09:21;-2.32;98.39
69938;DHT22;57248;47.320;15.998;2023-12-29T07:11:49;-2.22;98.21
69938;DHT22;57248;47.320;15.998;2023-12-29T07:14:23;-2.05;97.79
69938;DHT22;57248;47.320;15.998;2023-12-29T07:16:56;-1.77;97.16
69938;DHT22;57248;47.320;15.998;2023-12-29T07:19:28;-1.60;95.70
69938;DHT22;57248;47.320;15.998;2023-12-29T07:22:06;-1.28;95.15
69938;DHT22;57248;47.320;15.998;2023-12-29T07:24:39;-0.91;93.63
69938;DHT22;57248;47.320;15.998;2023-12-29T07:27:12;-0.63;93.14
69938;DHT22;57248;47.320;15.998;2023-12-29T07:29:40;-0.27;93.26
69938;DHT22;57248;47.320;15.998;2023-12-29T07:32:13;-0.10;92.62
69938;DHT22;57248;47.320;15.998;2023-12-29T07:34:45;0.39;91.66
69938;DHT22;57248;47.320;15.998;2023-12-29T07:37:10;0.77;89.63
69938;DHT22;57248;47.320;15.998;2023-12-29T07:39:44;6.63;99.99
69938;DHT22;57248;47.320;15.998;2023-12-29T07:42:19;7.65;87.17
69938;DHT22;57248;47.320;15.998;2023-12-29T07:44:53;8.13;79.36
69938;DHT22;57248;47.320;15.998;2023-12-29T07:47:29;6.86;73.60
69938;DHT22;57248;47.320;15.998;2023-12-29T07:50:01;5.36;76.66
69938;DHT22;57248;47.320;15.998;2023-12-29T07:52:47;4.80;78.16
69938;DHT22;57248;47.320;15.998;2023-12-29T07:55:19;4.63;79.49
69938;DHT22;57248;47.320;15.998;2023-12-29T07:57:51;4.60;79.16
69938;DHT22;57248;47.320;15.998;2023-12-29T08:00:31;4.17;79.53
69938;DHT22;57248;47.320;15.998;2023-12-29T08:03:03;4.64;78.33
69938;DHT22;57248;47.320;15.998;2023-12-29T08:05:37;4.87;79.11
69938;DHT22;57248;47.320;15.998;2023-12-29T08:08:09;4.78;78.93
69938;DHT22;57248;47.320;15.998;2023-12-29T08:10:41;4.96;79.71
69938;DHT22;57248;47.320;15.998;2023-12-29T08:13:14;5.08;79.11
69938;DHT22;57248;47.320;15.998;2023-12-29T08:15:47;5.19;78.39
69938;DHT22;57248;47.320;15.998;2023-12-29T08:18:19;5.38;78.52
69938;DHT22;57248;47.320;15.998;2023-12-29T08:20:51;5.80;78.78
69938;DHT22;57248;47.320;15.998;2023-12-29T08:23:23;6.08;78.32
69938;DHT22;57248;47.320;15.998;2023-12-29T08:25:58;6.42;76.91
69938;DHT22;57248;47.320;15.998;2023-12-29T08:28:30;6.48;76.88
69938;DHT22;57248;47.320;15.998;2023-12-29T08:31:02;6.82;75.67
69938;DHT22;57248;47.320;15.998;2023-12-29T08:33:41;6.99;75.54
69938;DHT22;57248;47.320;15.998;2023-12-29T08:36:17;7.23;75.48
69938;DHT22;57248;47.320;15.998;2023-12-29T08:38:50;7.25;74.67
69938;DHT22;57248;47.320;15.998;2023-12-29T08:41:18;6.80;74.58
69938;DHT22;57248;47.320;15.998;2023-12-29T08:43:50;6.76;76.05
69938;DHT22;57248;47.320;15.998;2023-12-29T08:46:22;6.43;75.23
69938;DHT22;57248;47.320;15.998;2023-12-29T08:48:54;6.31;76.27
69938;DHT22;57248;47.320;15.998;2023-12-29T08:51:26;6.00;77.62
69938;DHT22;57248;47.320;15.998;2023-12-29T08:54:05;8.27;73.26
69938;DHT22;57248;47.320;15.998;2023-12-29T08:56:37;9.92;68.30
69938;DHT22;57248;47.320;15.998;2023-12-29T08:59:10;10.55;66.40
69938;DHT22;57248;47.320;15.998;2023-12-29T09:01:42;10.84;66.74
69938;DHT22;57248;47.320;15.998;2023-12-29T09:04:14;11.14;64.89
69938;DHT22;57248;47.320;15.998;2023-12-29T09:06:46;11.52;63.22
69938;DHT22;57248;47.320;15.998;2023-12-29T09:09:11;11.39;62.38
69938;DHT22;57248;47.320;15.998;2023-12-29T09:11:45;12.37;62.17
69938;DHT22;57248;47.320;15.998;2023-12-29T09:14:18;13.22;59.78
69938;DHT22;57248;47.320;15.998;2023-12-29T09:16:51;13.02;58.48
69938;DHT22;57248;47.320;15.998;2023-12-29T09:19:23;13.94;56.20
69938;DHT22;57248;47.320;15.998;2023-12-29T09:21:55;15.11;54.87
69938;DHT22;57248;47.320;15.998;2023-12-29T09:24:27;15.66;54.06
69938;DHT22;57248;47.320;15.998;2023-12-29T09:26:59;14.55;55.63
69938;DHT22;57248;47.320;15.998;2023-12-29T09:29:31;13.30;58.26
69938;DHT22;57248;47.320;15.998;2023-12-29T09:32:03;13.61;59.40
69938;DHT22;57248;47.320;15.998;2023-12-29T09:34:29;12.98;59.97
69938;DHT22;57248;47.320;15.998;2023-12-29T09:37:02;13.67;59.30
69938;DHT22;57248;47.320;15.998;2023-12-29T09:39:35;12.99;59.20
69938;DHT22;57248;47.320;15.998;2023-12-29T09:42:09;13.50;58.96
69938;DHT22;57248;47.320;15.998;2023-12-29T09:44:46;14.24;55.96
69938;DHT22;57248;47.320;15.998;2023-12-29T09:47:26;15.44;55.95
69938;DHT22;57248;47.320;15.998;2023-12-29T09:50:28;15.23;55.21
69938;DHT22;57248;47.320;15.998;2023-12-29T09:53:02;14.36;54.90
69938;DHT22;57248;47.320;15.998;2023-12-29T09:55:36;13.15;57.31
69938;DHT22;57248;47.320;15.998;2023-12-29T09:58:09;12.10;60.58
69938;DHT22;57248;47.320;15.998;2023-12-29T10:00:43;12.01;62.27
69938;DHT22;57248;47.320;15.998;2023-12-29T10:03:18;13.15;60.67
69938;DHT22;57248;47.320;15.998;2023-12-29T10:05:55;13.20;60.24
69938;DHT22;57248;47.320;15.998;2023-12-29T10:08:29;14.72;56.80
69938;DHT22;57248;47.320;15.998;2023-12-29T10:11:01;15.89;54.47
69938;DHT22;57248;47.320;15.998;2023-12-29T10:13:36;16.20;52.50
69938;DHT22;57248;47.320;15.998;2023-12-29T10:19:28;17.75;52.54
69938;DHT22;57248;47.320;15.998;2023-12-29T10:24:41;17.67;58.69
69938;DHT22;57248;47.320;15.998;2023-12-29T10:27:18;17.64;58.89
69938;DHT22;57248;47.320;15.998;2023-12-29T10:29:43;17.51;58.82
69938;DHT22;57248;47.320;15.998;2023-12-29T10:32:16;17.94;57.91
69938;DHT22;57248;47.320;15.998;2023-12-29T10:34:48;18.01;56.36
69938;DHT22;57248;47.320;15.998;2023-12-29T10:37:23;18.79;59.25
69938;DHT22;57248;47.320;15.998;2023-12-29T10:39:56;18.41;48.87
69938;DHT22;57248;47.320;15.998;2023-12-29T10:42:28;17.88;50.62
69938;DHT22;57248;47.320;15.998;2023-12-29T10:45:08;17.73;50.53
69938;DHT22;57248;47.320;15.998;2023-12-29T10:47:43;18.82;50.39
69938;DHT22;57248;47.320;15.998;2023-12-29T10:50:16;19.90;48.04
69938;DHT22;57248;47.320;15.998;2023-12-29T10:53:11;20.06;47.30
69938;DHT22;57248;47.320;15.998;2023-12-29T10:55:51;19.55;47.92
69938;DHT22;57248;47.320;15.998;2023-12-29T10:58:23;19.35;48.44
69938;DHT22;57248;47.320;15.998;2023-12-29T11:00:57;20.02;46.71
69938;DHT22;57248;47.320;15.998;2023-12-29T11:03:31;20.67;45.53
69938;DHT22;57248;47.320;15.998;2023-12-29T11:06:04;22.14;43.86
69938;DHT22;57248;47.320;15.998;2023-12-29T11:08:36;21.90;43.93
69938;DHT22;57248;47.320;15.998;2023-12-29T11:11:08;22.10;43.40
69938;DHT22;57248;47.320;15.998;2023-12-29T11:13:42;21.53;43.58
69938;DHT22;57248;47.320;15.998;2023-12-29T11:16:15;19.92;45.78
69938;DHT22;57248;47.320;15.998;2023-12-29T11:18:49;21.26;44.62
69938;DHT22;57248;47.320;15.998;2023-12-29T11:21:26;22.48;41.33
69938;DHT22;57248;47.320;15.998;2023-12-29T11:23:59;21.23;44.02
69938;DHT22;57248;47.320;15.998;2023-12-29T11:26:26;23.23;41.76
69938;DHT22;57248;47.320;15.998;2023-12-29T11:28:58;22.55;41.04
69938;DHT22;57248;47.320;15.998;2023-12-29T11:31:31;23.65;40.77
69938;DHT22;57248;47.320;15.998;2023-12-29T11:34:10;22.24;41.11
69938;DHT22;57248;47.320;15.998;2023-12-29T11:36:46;22.35;41.74
69938;DHT22;57248;47.320;15.998;2023-12-29T11:39:28;21.60;42.23
69938;DHT22;57248;47.320;15.998;2023-12-29T11:42:07;21.50;43.44
69938;DHT22;57248;47.320;15.998;2023-12-29T11:44:44;23.68;40.19
69938;DHT22;57248;47.320;15.998;2023-12-29T11:47:47;25.65;36.98
69938;DHT22;57248;47.320;15.998;2023-12-29T11:50:39;26.35;36.80
69938;DHT22;57248;47.320;15.998;2023-12-29T11:53:31;25.70;35.38
69938;DHT22;57248;47.320;15.998;2023-12-29T11:56:14;25.86;35.02
69938;DHT22;57248;47.320;15.998;2023-12-29T11:58:47;21.98;38.12
69938;DHT22;57248;47.320;15.998;2023-12-29T12:01:33;20.72;40.59
69938;DHT22;57248;47.320;15.998;2023-12-29T12:04:36;21.35;41.05
69938;DHT22;57248;47.320;15.998;2023-12-29T12:12:54;20.23;41.05
69938;DHT22;57248;47.320;15.998;2023-12-29T12:18:10;17.95;43.32
69938;DHT22;57248;47.320;15.998;2023-12-29T12:20:50;18.31;41.33
69938;DHT22;57248;47.320;15.998;2023-12-29T12:23:24;20.08;40.75
69938;DHT22;57248;47.320;15.998;2023-12-29T12:25:58;20.43;39.91
69938;DHT22;57248;47.320;15.998;2023-12-29T12:28:33;20.17;40.94
69938;DHT22;57248;47.320;15.998;2023-12-29T12:31:06;20.58;43.36
69938;DHT22;57248;47.320;15.998;2023-12-29T12:33:40;20.33;45.22
69938;DHT22;57248;47.320;15.998;2023-12-29T12:36:12;18.84;46.01
69938;DHT22;57248;47.320;15.998;2023-12-29T12:38:51;18.84;45.44
69938;DHT22;57248;47.320;15.998;2023-12-29T12:41:24;18.77;45.29
69938;DHT22;57248;47.320;15.998;2023-12-29T12:44:11;19.13;45.75
69938;DHT22;57248;47.320;15.998;2023-12-29T12:46:56;18.34;45.02
69938;DHT22;57248;47.320;15.998;2023-12-29T12:49:29;16.91;49.36
69938;DHT22;57248;47.320;15.998;2023-12-29T12:52:15;17.22;48.39
69938;DHT22;57248;47.320;15.998;2023-12-29T12:54:47;17.19;49.17
69938;DHT22;57248;47.320;15.998;2023-12-29T12:57:20;17.80;49.07
69938;DHT22;57248;47.320;15.998;2023-12-29T12:59:54;17.36;51.15
69938;DHT22;57248;47.320;15.998;2023-12-29T13:02:27;17.49;51.15
69938;DHT22;57248;47.320;15.998;2023-12-29T13:04:53;17.27;50.10
69938;DHT22;57248;47.320;15.998;2023-12-29T13:07:26;16.78;49.87
69938;DHT22;57248;47.320;15.998;2023-12-29T13:10:02;16.79;49.22
69938;DHT22;57248;47.320;15.998;2023-12-29T13:12:35;16.46;51.18
69938;DHT22;57248;47.320;15.998;2023-12-29T13:15:08;16.44;51.57
69938;DHT22;57248;47.320;15.998;2023-12-29T13:17:50;16.38;51.49
69938;DHT22;57248;47.320;15.998;2023-12-29T13:20:23;14.65;53.63
69938;DHT22;57248;47.320;15.998;2023-12-29T13:22:58;15.63;53.81
69938;DHT22;57248;47.320;15.998;2023-12-29T13:25:31;15.28;53.75
69938;DHT22;57248;47.320;15.998;2023-12-29T13:28:03;14.50;53.88
69938;DHT22;57248;47.320;15.998;2023-12-29T13:30:37;14.28;54.17
69938;DHT22;57248;47.320;15.998;2023-12-29T13:33:16;13.97;57.27
69938;DHT22;57248;47.320;15.998;2023-12-29T13:35:54;13.91;59.47
69938;DHT22;57248;47.320;15.998;2023-12-29T13:38:36;12.99;61.51
69938;DHT22;57248;47.320;15.998;2023-12-29T13:41:11;12.33;63.16
69938;DHT22;57248;47.320;15.998;2023-12-29T13:43:45;12.69;61.02
69938;DHT22;57248;47.320;15.998;2023-12-29T13:46:12;13.19;59.21
69938;DHT22;57248;47.320;15.998;2023-12-29T13:48:46;13.15;59.32
69938;DHT22;57248;47.320;15.998;2023-12-29T13:51:25;13.35;60.40
69938;DHT22;57248;47.320;15.998;2023-12-29T13:54:04;13.51;60.57
69938;DHT22;57248;47.320;15.998;2023-12-29T13:56:36;13.32;61.54
69938;DHT22;57248;47.320;15.998;2023-12-29T13:59:08;12.54;61.83
69938;DHT22;57248;47.320;15.998;2023-12-29T14:01:40;12.38;63.07
69938;DHT22;57248;47.320;15.998;2023-12-29T14:04:14;12.24;62.62
69938;DHT22;57248;47.320;15.998;2023-12-29T14:06:59;12.20;63.39
69938;DHT22;57248;47.320;15.998;2023-12-29T14:09:31;12.24;62.99
69938;DHT22;57248;47.320;15.998;2023-12-29T14:12:05;12.24;63.27
69938;DHT22;57248;47.320;15.998;2023-12-29T14:14:38;11.94;63.43
69938;DHT22;57248;47.320;15.998;2023-12-29T14:17:10;11.46;63.67
69938;DHT22;57248;47.320;15.998;2023-12-29T14:19:42;11.41;64.30
69938;DHT22;57248;47.320;15.998;2023-12-29T14:22:10;11.54;64.18
69938;DHT22;57248;47.320;15.998;2023-12-29T14:24:42;11.28;65.11
69938;DHT22;57248;47.320;15.998;2023-12-29T14:27:14;11.10;65.67
69938;DHT22;57248;47.320;15.998;2023-12-29T14:29:46;10.62;66.67
69938;DHT22;57248;47.320;15.998;2023-12-29T14:32:18;10.69;67.23
69938;DHT22;57248;47.320;15.998;2023-12-29T14:34:50;10.64;68.11
69938;DHT22;57248;47.320;15.998;2023-12-29T14:37:24;10.19;69.05
69938;DHT22;57248;47.320;15.998;2023-12-29T14:39:57;9.65;69.39
69938;DHT22;57248;47.320;15.998;2023-12-29T14:42:29;9.09;71.36
69938;DHT22;57248;47.320;15.998;2023-12-29T14:45:01;9.33;70.99
69938;DHT22;57248;47.320;15.998;2023-12-29T14:47:35;9.43;70.22
69938;DHT22;57248;47.320;15.998;2023-12-29T14:50:14;8.79;71.78
69938;DHT22;57248;47.320;15.998;2023-12-29T14:52:47;8.58;73.17
69938;DHT22;57248;47.320;15.998;2023-12-29T14:55:19;8.67;72.38
69938;DHT22;57248;47.320;15.998;2023-12-29T14:57:52;8.48;72.74
69938;DHT22;57248;47.320;15.998;2023-12-29T15:00:24;8.30;72.65
69938;DHT22;57248;47.320;15.998;2023-12-29T15:02:56;8.02;73.81
69938;DHT22;57248;47.320;15.998;2023-12-29T15:05:29;7.90;74.22
69938;DHT22;57248;47.320;15.998;2023-12-29T15:08:01;7.66;74.78
69938;DHT22;57248;47.320;15.998;2023-12-29T15:10:35;7.51;75.30
69938;DHT22;57248;47.320;15.998;2023-12-29T15:13:07;7.50;74.76
69938;DHT22;57248;47.320;15.998;2023-12-29T15:15:39;6.96;77.32
69938;DHT22;57248;47.320;15.998;2023-12-29T15:18:05;7.03;76.27
69938;DHT22;57248;47.320;15.998;2023-12-29T15:20:37;6.99;75.57
69938;DHT22;57248;47.320;15.998;2023-12-29T15:23:09;6.94;75.36
69938;DHT22;57248;47.320;15.998;2023-12-29T15:25:34;6.72;76.39
69938;DHT22;57248;47.320;15.998;2023-12-29T15:28:06;6.68;76.32
69938;DHT22;57248;47.320;15.998;2023-12-29T15:30:39;6.46;76.73
69938;DHT22;57248;47.320;15.998;2023-12-29T15:33:14;6.36;76.93
69938;DHT22;57248;47.320;15.998;2023-12-29T15:35:46;6.10;78.77
69938;DHT22;57248;47.320;15.998;2023-12-29T15:38:18;5.94;80.04
69938;DHT22;57248;47.320;15.998;2023-12-29T15:40:51;5.86;79.07
69938;DHT22;57248;47.320;15.998;2023-12-29T15:43:23;5.77;79.02
69938;DHT22;57248;47.320;15.998;2023-12-29T15:45:56;5.71;79.82
69938;DHT22;57248;47.320;15.998;2023-12-29T15:48:21;5.47;81.34
69938;DHT22;57248;47.320;15.998;2023-12-29T15:50:53;5.44;80.90
69938;DHT22;57248;47.320;15.998;2023-12-29T15:53:25;5.38;80.14
69938;DHT22;57248;47.320;15.998;2023-12-29T15:55:57;5.29;81.15
69938;DHT22;57248;47.320;15.998;2023-12-29T15:58:32;5.01;81.70
69938;DHT22;57248;47.320;15.998;2023-12-29T16:00:58;4.83;83.24
69938;DHT22;57248;47.320;15.998;2023-12-29T16:03:33;4.95;82.03
69938;DHT22;57248;47.320;15.998;2023-12-29T16:06:06;4.81;81.59
69938;DHT22;57248;47.320;15.998;2023-12-29T16:08:38;4.60;83.43
69938;DHT22;57248;47.320;15.998;2023-12-29T16:11:18;4.68;82.08
69938;DHT22;57248;47.320;15.998;2023-12-29T16:13:51;4.57;82.74
69938;DHT22;57248;47.320;15.998;2023-12-29T16:16:23;4.46;83.68
69938;DHT22;57248;47.320;15.998;2023-12-29T16:19:00;9.65;86.07